KFFA/FFA METAR and TAF weather

Enter ICAO airport designator
Station Type Date Time Source
KFFA METAR 2024/06/14 03:50 UTC NOAA

KFFA 140350Z AUTO 13004KT 10SM CLR 22/19 A3000 RMK AO2 T02200188


Station Type Date Time Source
KFFA Decoded METAR 2024/06/14 03:50 UTC NOAA

Kill Devil Hills, First Flight Airport, NC, United States (KFFA) 36-01N 075-40W
Jun 13, 2024 - 11:50 PM EDT / 2024.06.14 0350 UTC
Wind: from the SE (130 degrees) at 5 MPH (4 KT):0
Visibility: 10 mile(s):0
Sky conditions: clear
Temperature: 71.6 F (22.0 C)
Dew Point: 65.8 F (18.8 C)
Relative Humidity: 82%
Pressure (altimeter): 30 in. Hg (1015 hPa)
ob: KFFA 140350Z AUTO 13004KT 10SM CLR 22/19 A3000 RMK AO2 T02200188
cycle: 4

Station Type Date Time Source
KFFA TAF UTC NOAA

Error!

Example: see airport list